sensor_id;sensor_type;location;lat;lon;timestamp;pressure;altitude;pressure_sealevel;temperature;humidity
23223;BME280;11780;13.904;100.620;2022-10-22T04:49:15;101290.59;;;30.50;67.47
23223;BME280;11780;13.904;100.620;2022-10-22T04:51:48;101282.44;;;30.59;66.31
23223;BME280;11780;13.904;100.620;2022-10-22T04:54:18;101279.59;;;30.64;66.19
23223;BME280;11780;13.904;100.620;2022-10-22T04:56:49;101271.75;;;30.80;65.09
23223;BME280;11780;13.904;100.620;2022-10-22T04:59:20;101272.28;;;30.82;65.36
23223;BME280;11780;13.904;100.620;2022-10-22T05:01:51;101265.88;;;30.95;65.41
23223;BME280;11780;13.904;100.620;2022-10-22T05:04:22;101271.19;;;31.06;64.86
23223;BME280;11780;13.904;100.620;2022-10-22T05:06:53;101255.09;;;31.08;65.00
23223;BME280;11780;13.904;100.620;2022-10-22T05:09:24;101257.56;;;31.09;64.76
23223;BME280;11780;13.904;100.620;2022-10-22T05:11:54;101249.50;;;31.13;64.58
23223;BME280;11780;13.904;100.620;2022-10-22T05:14:25;101246.09;;;31.16;64.45
23223;BME280;11780;13.904;100.620;2022-10-22T05:16:57;101245.59;;;31.14;64.64
23223;BME280;11780;13.904;100.620;2022-10-22T05:19:28;101239.44;;;31.17;64.07
23223;BME280;11780;13.904;100.620;2022-10-22T05:22:02;101230.53;;;31.20;63.99
23223;BME280;11780;13.904;100.620;2022-10-22T05:24:33;101232.16;;;31.21;63.55
23223;BME280;11780;13.904;100.620;2022-10-22T05:27:06;101230.22;;;31.22;63.48
23223;BME280;11780;13.904;100.620;2022-10-22T05:29:37;101218.22;;;31.26;64.04
23223;BME280;11780;13.904;100.620;2022-10-22T05:32:08;101223.16;;;31.38;63.44
23223;BME280;11780;13.904;100.620;2022-10-22T05:34:39;101217.59;;;31.29;63.41
23223;BME280;11780;13.904;100.620;2022-10-22T05:37:10;101211.25;;;31.29;63.22
23223;BME280;11780;13.904;100.620;2022-10-22T05:39:41;101209.63;;;31.28;63.18
23223;BME280;11780;13.904;100.620;2022-10-22T05:42:11;101206.34;;;31.26;63.04
23223;BME280;11780;13.904;100.620;2022-10-22T05:44:42;101206.53;;;31.29;62.75
23223;BME280;11780;13.904;100.620;2022-10-22T05:47:13;101201.06;;;31.38;61.63
23223;BME280;11780;13.904;100.620;2022-10-22T05:49:44;101205.91;;;31.33;61.68
23223;BME280;11780;13.904;100.620;2022-10-22T05:52:15;101205.06;;;31.32;61.83
23223;BME280;11780;13.904;100.620;2022-10-22T05:54:46;101188.19;;;31.34;61.09
23223;BME280;11780;13.904;100.620;2022-10-22T05:57:18;101195.16;;;31.31;60.51
23223;BME280;11780;13.904;100.620;2022-10-22T05:59:49;101185.88;;;31.27;60.89
23223;BME280;11780;13.904;100.620;2022-10-22T06:02:20;101187.84;;;31.35;61.14
23223;BME280;11780;13.904;100.620;2022-10-22T06:04:50;101180.63;;;31.25;61.26
23223;BME280;11780;13.904;100.620;2022-10-22T06:07:21;101180.44;;;31.44;60.63
23223;BME280;11780;13.904;100.620;2022-10-22T06:09:54;101174.72;;;31.41;60.50
23223;BME280;11780;13.904;100.620;2022-10-22T06:12:25;101167.44;;;31.45;60.14
23223;BME280;11780;13.904;100.620;2022-10-22T06:14:56;101163.84;;;31.44;59.70
23223;BME280;11780;13.904;100.620;2022-10-22T06:17:27;101157.03;;;31.51;59.97
23223;BME280;11780;13.904;100.620;2022-10-22T06:19:59;101160.25;;;31.44;60.63
23223;BME280;11780;13.904;100.620;2022-10-22T06:22:34;101143.03;;;31.47;60.72
23223;BME280;11780;13.904;100.620;2022-10-22T06:25:05;101136.56;;;31.52;61.18
23223;BME280;11780;13.904;100.620;2022-10-22T06:27:37;101131.19;;;31.55;60.01
23223;BME280;11780;13.904;100.620;2022-10-22T06:30:09;101133.91;;;31.47;60.30
23223;BME280;11780;13.904;100.620;2022-10-22T06:32:40;101125.16;;;31.44;60.71
23223;BME280;11780;13.904;100.620;2022-10-22T06:35:11;101133.56;;;31.39;60.31
23223;BME280;11780;13.904;100.620;2022-10-22T06:37:42;101119.94;;;31.43;60.76
23223;BME280;11780;13.904;100.620;2022-10-22T06:40:13;101113.59;;;31.42;61.00
23223;BME280;11780;13.904;100.620;2022-10-22T06:42:45;101108.06;;;31.42;61.79
23223;BME280;11780;13.904;100.620;2022-10-22T06:45:16;101110.00;;;31.42;61.44
23223;BME280;11780;13.904;100.620;2022-10-22T06:47:47;101102.22;;;31.44;61.31
23223;BME280;11780;13.904;100.620;2022-10-22T06:50:18;101089.22;;;31.44;61.35
23223;BME280;11780;13.904;100.620;2022-10-22T06:52:49;101094.44;;;31.55;61.01
23223;BME280;11780;13.904;100.620;2022-10-22T06:55:20;101090.72;;;31.59;60.95
23223;BME280;11780;13.904;100.620;2022-10-22T06:57:51;101080.16;;;31.62;60.74
23223;BME280;11780;13.904;100.620;2022-10-22T07:00:21;101083.91;;;31.66;60.56
23223;BME280;11780;13.904;100.620;2022-10-22T07:02:54;101070.59;;;31.68;60.52
23223;BME280;11780;13.904;100.620;2022-10-22T07:05:26;101071.38;;;31.68;60.26
23223;BME280;11780;13.904;100.620;2022-10-22T07:07:57;101063.78;;;31.74;60.03
23223;BME280;11780;13.904;100.620;2022-10-22T07:10:29;101055.44;;;31.65;60.64
23223;BME280;11780;13.904;100.620;2022-10-22T07:13:00;101042.09;;;31.67;60.69
23223;BME280;11780;13.904;100.620;2022-10-22T07:15:31;101041.81;;;31.78;60.58
23223;BME280;11780;13.904;100.620;2022-10-22T07:18:01;101039.88;;;31.78;60.25
23223;BME280;11780;13.904;100.620;2022-10-22T07:20:34;101033.34;;;31.74;60.47
23223;BME280;11780;13.904;100.620;2022-10-22T07:23:04;101029.97;;;31.86;60.62
23223;BME280;11780;13.904;100.620;2022-10-22T07:25:35;101027.34;;;31.72;60.50
23223;BME280;11780;13.904;100.620;2022-10-22T07:28:07;101021.50;;;31.73;60.79
23223;BME280;11780;13.904;100.620;2022-10-22T07:30:37;101014.28;;;31.64;60.99
23223;BME280;11780;13.904;100.620;2022-10-22T07:33:08;101022.94;;;31.71;60.81
23223;BME280;11780;13.904;100.620;2022-10-22T07:35:40;101010.88;;;31.67;60.72
23223;BME280;11780;13.904;100.620;2022-10-22T07:38:11;101004.84;;;31.56;61.40
23223;BME280;11780;13.904;100.620;2022-10-22T07:40:42;101012.00;;;31.66;61.34
23223;BME280;11780;13.904;100.620;2022-10-22T07:43:13;101003.72;;;31.66;61.58
23223;BME280;11780;13.904;100.620;2022-10-22T07:45:45;101016.25;;;31.72;61.46
23223;BME280;11780;13.904;100.620;2022-10-22T07:48:17;101008.25;;;31.62;61.31
23223;BME280;11780;13.904;100.620;2022-10-22T07:50:49;101003.53;;;31.62;61.29
23223;BME280;11780;13.904;100.620;2022-10-22T07:53:20;101005.50;;;31.62;61.34
23223;BME280;11780;13.904;100.620;2022-10-22T07:55:51;100999.31;;;31.65;61.37
23223;BME280;11780;13.904;100.620;2022-10-22T07:58:22;100995.22;;;31.53;61.87
23223;BME280;11780;13.904;100.620;2022-10-22T08:00:57;100992.31;;;31.58;61.92
23223;BME280;11780;13.904;100.620;2022-10-22T08:03:30;100996.56;;;31.65;61.60
23223;BME280;11780;13.904;100.620;2022-10-22T08:06:01;100986.69;;;31.72;61.75
23223;BME280;11780;13.904;100.620;2022-10-22T08:08:32;100984.72;;;31.73;61.46
23223;BME280;11780;13.904;100.620;2022-10-22T08:11:04;100992.00;;;31.69;61.36
23223;BME280;11780;13.904;100.620;2022-10-22T08:13:35;100986.03;;;31.76;60.96
23223;BME280;11780;13.904;100.620;2022-10-22T08:16:12;100992.81;;;31.69;61.35
23223;BME280;11780;13.904;100.620;2022-10-22T08:18:43;100990.88;;;31.70;61.08
23223;BME280;11780;13.904;100.620;2022-10-22T08:21:14;100982.09;;;31.68;61.43
23223;BME280;11780;13.904;100.620;2022-10-22T08:23:47;100984.72;;;31.73;60.99
23223;BME280;11780;13.904;100.620;2022-10-22T08:26:18;100978.53;;;31.76;61.13
23223;BME280;11780;13.904;100.620;2022-10-22T08:28:50;100981.91;;;31.64;61.26
23223;BME280;11780;13.904;100.620;2022-10-22T08:31:21;100981.75;;;31.69;61.12
23223;BME280;11780;13.904;100.620;2022-10-22T08:33:52;100974.94;;;31.67;61.03
23223;BME280;11780;13.904;100.620;2022-10-22T08:36:23;100980.94;;;31.69;61.35
23223;BME280;11780;13.904;100.620;2022-10-22T08:38:54;100976.22;;;31.61;61.71
23223;BME280;11780;13.904;100.620;2022-10-22T08:41:25;100968.13;;;31.73;61.67
23223;BME280;11780;13.904;100.620;2022-10-22T08:47:38;100964.06;;;31.70;61.07
23223;BME280;11780;13.904;100.620;2022-10-22T08:50:17;100958.69;;;31.74;61.40
23223;BME280;11780;13.904;100.620;2022-10-22T08:52:52;100952.13;;;31.61;62.04
23223;BME280;11780;13.904;100.620;2022-10-22T08:55:27;100960.31;;;31.75;61.39
23223;BME280;11780;13.904;100.620;2022-10-22T09:00:46;100952.81;;;31.67;61.37
23223;BME280;11780;13.904;100.620;2022-10-22T09:06:17;100958.34;;;31.67;61.44
23223;BME280;11780;13.904;100.620;2022-10-22T09:08:51;100957.34;;;31.54;62.45
23223;BME280;11780;13.904;100.620;2022-10-22T09:11:32;100957.19;;;31.59;62.11
23223;BME280;11780;13.904;100.620;2022-10-22T09:14:16;100960.13;;;31.63;62.06
23223;BME280;11780;13.904;100.620;2022-10-22T09:17:43;100960.75;;;31.59;62.72
23223;BME280;11780;13.904;100.620;2022-10-22T09:20:26;100953.59;;;31.50;62.21
23223;BME280;11780;13.904;100.620;2022-10-22T09:23:11;100953.59;;;31.58;62.08
23223;BME280;11780;13.904;100.620;2022-10-22T09:25:48;100953.59;;;31.58;62.13
23223;BME280;11780;13.904;100.620;2022-10-22T09:28:20;100956.06;;;31.60;62.03
23223;BME280;11780;13.904;100.620;2022-10-22T09:30:51;100954.72;;;31.57;62.04
23223;BME280;11780;13.904;100.620;2022-10-22T09:33:28;100963.19;;;31.52;62.40
23223;BME280;11780;13.904;100.620;2022-10-22T09:36:01;100962.22;;;31.57;62.04
23223;BME280;11780;13.904;100.620;2022-10-22T09:38:40;100964.50;;;31.64;62.20
23223;BME280;11780;13.904;100.620;2022-10-22T09:41:15;100968.41;;;31.54;62.96
23223;BME280;11780;13.904;100.620;2022-10-22T09:43:47;100964.66;;;31.58;62.45
23223;BME280;11780;13.904;100.620;2022-10-22T09:46:26;100968.41;;;31.63;62.60
23223;BME280;11780;13.904;100.620;2022-10-22T09:48:59;100961.41;;;31.56;62.54
23223;BME280;11780;13.904;100.620;2022-10-22T09:51:55;100952.47;;;31.68;62.55
23223;BME280;11780;13.904;100.620;2022-10-22T09:54:38;100971.38;;;31.75;62.44
23223;BME280;11780;13.904;100.620;2022-10-22T09:57:23;100970.19;;;31.67;62.64
23223;BME280;11780;13.904;100.620;2022-10-22T09:59:56;100974.44;;;31.65;62.57
23223;BME280;11780;13.904;100.620;2022-10-22T10:02:46;100979.50;;;31.71;62.75
23223;BME280;11780;13.904;100.620;2022-10-22T10:05:17;100981.09;;;31.64;63.24
23223;BME280;11780;13.904;100.620;2022-10-22T10:07:48;100989.88;;;31.66;63.19
23223;BME280;11780;13.904;100.620;2022-10-22T10:10:59;100997.34;;;31.65;63.44
23223;BME280;11780;13.904;100.620;2022-10-22T10:22:25;101020.13;;;31.62;62.97
23223;BME280;11780;13.904;100.620;2022-10-22T10:30:38;101025.97;;;31.61;63.15
23223;BME280;11780;13.904;100.620;2022-10-22T10:33:32;101039.44;;;31.53;63.34
23223;BME280;11780;13.904;100.620;2022-10-22T10:36:18;101036.25;;;31.60;63.34
23223;BME280;11780;13.904;100.620;2022-10-22T10:39:28;101035.56;;;31.63;63.47
23223;BME280;11780;13.904;100.620;2022-10-22T10:45:05;101037.53;;;31.63;63.14
23223;BME280;11780;13.904;100.620;2022-10-22T10:48:20;101029.88;;;31.59;62.70
23223;BME280;11780;13.904;100.620;2022-10-22T10:56:32;101043.84;;;31.54;63.12
23223;BME280;11780;13.904;100.620;2022-10-22T11:08:20;101058.66;;;31.50;63.56
23223;BME280;11780;13.904;100.620;2022-10-22T11:13:42;101058.81;;;31.53;63.56
23223;BME280;11780;13.904;100.620;2022-10-22T11:16:55;101063.69;;;31.56;63.75
23223;BME280;11780;13.904;100.620;2022-10-22T11:19:35;101076.56;;;31.52;63.74
23223;BME280;11780;13.904;100.620;2022-10-22T11:23:08;101079.16;;;31.57;63.80
23223;BME280;11780;13.904;100.620;2022-10-22T11:25:48;101083.56;;;31.58;63.70
23223;BME280;11780;13.904;100.620;2022-10-22T11:31:00;101094.13;;;31.56;63.89
23223;BME280;11780;13.904;100.620;2022-10-22T11:33:39;101099.69;;;31.65;63.42
23223;BME280;11780;13.904;100.620;2022-10-22T11:36:14;101100.97;;;31.59;63.69
23223;BME280;11780;13.904;100.620;2022-10-22T11:38:47;101104.22;;;31.61;63.68
23223;BME280;11780;13.904;100.620;2022-10-22T11:41:18;101106.59;;;31.45;63.95
23223;BME280;11780;13.904;100.620;2022-10-22T11:44:20;101117.66;;;31.45;63.93
23223;BME280;11780;13.904;100.620;2022-10-22T11:47:08;101119.47;;;31.50;63.99
23223;BME280;11780;13.904;100.620;2022-10-22T11:49:56;101116.66;;;31.41;63.62
23223;BME280;11780;13.904;100.620;2022-10-22T11:55:10;101127.09;;;31.44;63.84
23223;BME280;11780;13.904;100.620;2022-10-22T11:57:56;101124.19;;;31.49;63.65
23223;BME280;11780;13.904;100.620;2022-10-22T12:00:45;101127.41;;;31.42;63.87
23223;BME280;11780;13.904;100.620;2022-10-22T12:14:33;101135.72;;;31.42;64.14
23223;BME280;11780;13.904;100.620;2022-10-22T12:17:13;101144.50;;;31.44;64.22
23223;BME280;11780;13.904;100.620;2022-10-22T12:19:46;101158.00;;;31.46;64.50
23223;BME280;11780;13.904;100.620;2022-10-22T12:22:27;101155.38;;;31.41;64.52
23223;BME280;11780;13.904;100.620;2022-10-22T12:25:02;101162.41;;;31.47;64.73
23223;BME280;11780;13.904;100.620;2022-10-22T12:27:39;101157.81;;;31.42;64.65
23223;BME280;11780;13.904;100.620;2022-10-22T12:30:18;101171.81;;;31.46;64.87
23223;BME280;11780;13.904;100.620;2022-10-22T12:32:53;101168.88;;;31.42;64.86
23223;BME280;11780;13.904;100.620;2022-10-22T12:35:33;101179.09;;;31.42;64.79
23223;BME280;11780;13.904;100.620;2022-10-22T12:38:18;101180.13;;;31.46;64.72
23223;BME280;11780;13.904;100.620;2022-10-22T12:40:53;101185.16;;;31.44;64.80
23223;BME280;11780;13.904;100.620;2022-10-22T12:43:27;101197.22;;;31.48;64.74
23223;BME280;11780;13.904;100.620;2022-10-22T12:45:59;101205.63;;;31.43;64.68
23223;BME280;11780;13.904;100.620;2022-10-22T12:48:30;101202.41;;;31.50;64.84
23223;BME280;11780;13.904;100.620;2022-10-22T12:51:04;101213.63;;;31.44;64.86
23223;BME280;11780;13.904;100.620;2022-10-22T12:53:51;101223.09;;;31.52;64.85
23223;BME280;11780;13.904;100.620;2022-10-22T12:56:31;101221.47;;;31.51;64.83
23223;BME280;11780;13.904;100.620;2022-10-22T12:59:25;101226.78;;;31.48;65.07
23223;BME280;11780;13.904;100.620;2022-10-22T13:01:57;101248.28;;;31.51;65.59
23223;BME280;11780;13.904;100.620;2022-10-22T13:04:36;101245.84;;;31.49;65.71
23223;BME280;11780;13.904;100.620;2022-10-22T13:12:33;101259.34;;;31.51;66.43
23223;BME280;11780;13.904;100.620;2022-10-22T13:18:18;101285.16;;;31.46;66.48
23223;BME280;11780;13.904;100.620;2022-10-22T13:20:55;101289.19;;;31.40;66.96
23223;BME280;11780;13.904;100.620;2022-10-22T13:23:27;101293.78;;;31.44;66.79
23223;BME280;11780;13.904;100.620;2022-10-22T13:26:14;101292.59;;;31.37;66.79
23223;BME280;11780;13.904;100.620;2022-10-22T13:28:51;101292.91;;;31.35;67.17
23223;BME280;11780;13.904;100.620;2022-10-22T13:31:29;101292.59;;;31.37;67.20
23223;BME280;11780;13.904;100.620;2022-10-22T13:34:05;101299.72;;;31.38;67.03
23223;BME280;11780;13.904;100.620;2022-10-22T13:36:41;101308.25;;;31.41;67.08
23223;BME280;11780;13.904;100.620;2022-10-22T13:39:22;101318.34;;;31.46;67.13
23223;BME280;11780;13.904;100.620;2022-10-22T13:41:54;101317.34;;;31.42;67.42
23223;BME280;11780;13.904;100.620;2022-10-22T13:44:25;101316.03;;;31.39;67.64
23223;BME280;11780;13.904;100.620;2022-10-22T13:46:56;101322.88;;;31.42;67.41
23223;BME280;11780;13.904;100.620;2022-10-22T13:49:27;101327.59;;;31.41;67.62
23223;BME280;11780;13.904;100.620;2022-10-22T13:51:58;101325.94;;;31.40;67.53
23223;BME280;11780;13.904;100.620;2022-10-22T13:54:30;101341.28;;;31.47;67.41
23223;BME280;11780;13.904;100.620;2022-10-22T13:57:01;101341.19;;;31.38;67.53
23223;BME280;11780;13.904;100.620;2022-10-22T13:59:32;101360.38;;;31.34;67.24
23223;BME280;11780;13.904;100.620;2022-10-22T14:02:06;101368.84;;;31.38;67.26
23223;BME280;11780;13.904;100.620;2022-10-22T14:04:39;101354.09;;;31.42;67.46
23223;BME280;11780;13.904;100.620;2022-10-22T14:07:13;101354.63;;;31.44;67.12
23223;BME280;11780;13.904;100.620;2022-10-22T14:09:45;101351.47;;;31.37;67.56
23223;BME280;11780;13.904;100.620;2022-10-22T14:12:16;101363.81;;;31.40;67.19
23223;BME280;11780;13.904;100.620;2022-10-22T14:14:48;101372.44;;;31.38;67.08
23223;BME280;11780;13.904;100.620;2022-10-22T14:17:19;101388.91;;;31.43;67.45
23223;BME280;11780;13.904;100.620;2022-10-22T14:19:50;101390.66;;;31.39;67.34
23223;BME280;11780;13.904;100.620;2022-10-22T14:22:23;101402.84;;;31.38;67.75
23223;BME280;11780;13.904;100.620;2022-10-22T14:24:56;101395.78;;;31.32;67.99
23223;BME280;11780;13.904;100.620;2022-10-22T14:27:26;101388.34;;;31.33;67.71
23223;BME280;11780;13.904;100.620;2022-10-22T14:29:57;101388.16;;;31.29;67.81
23223;BME280;11780;13.904;100.620;2022-10-22T14:32:28;101391.81;;;31.24;68.09
23223;BME280;11780;13.904;100.620;2022-10-22T14:34:59;101379.84;;;31.29;67.93
23223;BME280;11780;13.904;100.620;2022-10-22T14:37:30;101380.66;;;31.29;68.05
23223;BME280;11780;13.904;100.620;2022-10-22T14:40:02;101389.88;;;31.25;68.42
23223;BME280;11780;13.904;100.620;2022-10-22T14:42:37;101386.69;;;31.32;68.47
23223;BME280;11780;13.904;100.620;2022-10-22T14:45:23;101397.44;;;31.33;68.54
23223;BME280;11780;13.904;100.620;2022-10-22T14:47:54;101415.84;;;31.38;67.97
23223;BME280;11780;13.904;100.620;2022-10-22T14:50:25;101425.69;;;31.30;67.99
23223;BME280;11780;13.904;100.620;2022-10-22T14:52:56;101447.00;;;31.29;68.44
23223;BME280;11780;13.904;100.620;2022-10-22T14:55:29;101447.09;;;31.24;68.53
23223;BME280;11780;13.904;100.620;2022-10-22T14:58:00;101454.88;;;31.22;68.47
23223;BME280;11780;13.904;100.620;2022-10-22T15:00:31;101451.63;;;31.20;68.22
23223;BME280;11780;13.904;100.620;2022-10-22T15:03:03;101464.63;;;31.20;68.57
23223;BME280;11780;13.904;100.620;2022-10-22T15:05:35;101453.97;;;31.13;68.81
23223;BME280;11780;13.904;100.620;2022-10-22T15:08:05;101447.00;;;31.16;69.26
23223;BME280;11780;13.904;100.620;2022-10-22T15:10:36;101444.03;;;31.12;70.09
23223;BME280;11780;13.904;100.620;2022-10-22T15:13:08;101447.38;;;31.09;70.49
23223;BME280;11780;13.904;100.620;2022-10-22T15:15:39;101432.25;;;31.06;70.83
23223;BME280;11780;13.904;100.620;2022-10-22T15:18:10;101413.09;;;31.10;70.86
23223;BME280;11780;13.904;100.620;2022-10-22T15:20:41;101402.56;;;31.12;70.41
23223;BME280;11780;13.904;100.620;2022-10-22T15:23:11;101400.84;;;31.02;71.25
23223;BME280;11780;13.904;100.620;2022-10-22T15:25:42;101403.31;;;31.04;71.51
23223;BME280;11780;13.904;100.620;2022-10-22T15:28:13;101396.00;;;31.08;71.42
23223;BME280;11780;13.904;100.620;2022-10-22T15:30:54;101400.31;;;31.00;71.96
23223;BME280;11780;13.904;100.620;2022-10-22T15:33:27;101403.41;;;30.98;71.79
23223;BME280;11780;13.904;100.620;2022-10-22T15:36:08;101405.13;;;31.08;71.90
23223;BME280;11780;13.904;100.620;2022-10-22T15:38:40;101408.00;;;31.03;72.33
23223;BME280;11780;13.904;100.620;2022-10-22T15:41:12;101401.06;;;30.92;72.62
23223;BME280;11780;13.904;100.620;2022-10-22T15:43:43;101410.56;;;30.99;72.90
23223;BME280;11780;13.904;100.620;2022-10-22T15:46:18;101419.78;;;30.95;72.87
23223;BME280;11780;13.904;100.620;2022-10-22T15:49:37;101404.63;;;30.92;72.99
23223;BME280;11780;13.904;100.620;2022-10-22T15:52:08;101405.03;;;30.86;73.67
23223;BME280;11780;13.904;100.620;2022-10-22T15:54:39;101400.34;;;30.86;73.38
23223;BME280;11780;13.904;100.620;2022-10-22T15:57:10;101395.44;;;30.83;73.35
23223;BME280;11780;13.904;100.620;2022-10-22T15:59:41;101397.19;;;30.79;73.53
23223;BME280;11780;13.904;100.620;2022-10-22T16:02:12;101393.09;;;30.76;73.56
23223;BME280;11780;13.904;100.620;2022-10-22T16:04:44;101389.00;;;30.74;73.32
23223;BME280;11780;13.904;100.620;2022-10-22T16:07:15;101398.94;;;30.75;73.44
23223;BME280;11780;13.904;100.620;2022-10-22T16:09:57;101395.03;;;30.76;73.20
23223;BME280;11780;13.904;100.620;2022-10-22T16:12:29;101393.91;;;30.77;73.45
23223;BME280;11780;13.904;100.620;2022-10-22T16:15:00;101390.34;;;30.76;73.58
23223;BME280;11780;13.904;100.620;2022-10-22T16:17:31;101379.28;;;30.76;73.33
23223;BME280;11780;13.904;100.620;2022-10-22T16:20:02;101375.91;;;30.79;73.22
23223;BME280;11780;13.904;100.620;2022-10-22T16:22:33;101373.44;;;30.78;73.04
23223;BME280;11780;13.904;100.620;2022-10-22T16:25:05;101377.31;;;30.77;73.47
23223;BME280;11780;13.904;100.620;2022-10-22T16:27:35;101371.31;;;30.75;73.95
23223;BME280;11780;13.904;100.620;2022-10-22T16:30:07;101375.81;;;30.71;73.97
23223;BME280;11780;13.904;100.620;2022-10-22T16:32:38;101371.94;;;30.72;74.12
23223;BME280;11780;13.904;100.620;2022-10-22T16:35:09;101368.84;;;30.73;74.06
23223;BME280;11780;13.904;100.620;2022-10-22T16:37:40;101376.34;;;30.73;74.44
23223;BME280;11780;13.904;100.620;2022-10-22T16:40:11;101368.03;;;30.73;74.42
23223;BME280;11780;13.904;100.620;2022-10-22T16:42:43;101370.28;;;30.71;73.93
23223;BME280;11780;13.904;100.620;2022-10-22T16:45:15;101371.09;;;30.71;74.52
23223;BME280;11780;13.904;100.620;2022-10-22T16:47:46;101376.41;;;30.67;74.44
23223;BME280;11780;13.904;100.620;2022-10-22T16:50:18;101372.53;;;30.68;74.47
23223;BME280;11780;13.904;100.620;2022-10-22T16:52:49;101373.56;;;30.73;74.42
23223;BME280;11780;13.904;100.620;2022-10-22T16:55:20;101373.56;;;30.73;74.32
23223;BME280;11780;13.904;100.620;2022-10-22T16:57:51;101359.84;;;30.67;74.42
23223;BME280;11780;13.904;100.620;2022-10-22T17:00:22;101363.75;;;30.66;74.38
23223;BME280;11780;13.904;100.620;2022-10-22T17:02:54;101367.34;;;30.67;74.27
23223;BME280;11780;13.904;100.620;2022-10-22T17:05:24;101363.75;;;30.66;74.08
23223;BME280;11780;13.904;100.620;2022-10-22T17:07:55;101356.59;;;30.65;74.04
23223;BME280;11780;13.904;100.620;2022-10-22T17:10:26;101362.09;;;30.65;74.43
23223;BME280;11780;13.904;100.620;2022-10-22T17:12:57;101351.06;;;30.65;74.27
23223;BME280;11780;13.904;100.620;2022-10-22T17:15:28;101339.81;;;30.62;74.77
23223;BME280;11780;13.904;100.620;2022-10-22T17:17:59;101348.28;;;30.65;74.16
23223;BME280;11780;13.904;100.620;2022-10-22T17:20:30;101340.34;;;30.64;74.84
23223;BME280;11780;13.904;100.620;2022-10-22T17:23:01;101331.22;;;30.63;74.53
23223;BME280;11780;13.904;100.620;2022-10-22T17:25:40;101335.75;;;30.59;74.50
23223;BME280;11780;13.904;100.620;2022-10-22T17:28:12;101335.50;;;30.56;74.50
23223;BME280;11780;13.904;100.620;2022-10-22T17:30:43;101330.28;;;30.54;74.79
23223;BME280;11780;13.904;100.620;2022-10-22T17:33:14;101325.59;;;30.55;74.43
23223;BME280;11780;13.904;100.620;2022-10-22T17:35:45;101331.94;;;30.55;74.77
23223;BME280;11780;13.904;100.620;2022-10-22T17:38:18;101322.00;;;30.54;74.62
23223;BME280;11780;13.904;100.620;2022-10-22T17:40:49;101332.47;;;30.57;74.78
23223;BME280;11780;13.904;100.620;2022-10-22T17:43:20;101327.75;;;30.58;74.53
23223;BME280;11780;13.904;100.620;2022-10-22T17:45:51;101326.44;;;30.55;74.40
23223;BME280;11780;13.904;100.620;2022-10-22T17:48:21;101327.22;;;30.56;74.42
23223;BME280;11780;13.904;100.620;2022-10-22T17:50:52;101330.00;;;30.56;74.55
23223;BME280;11780;13.904;100.620;2022-10-22T17:53:25;101315.91;;;30.57;74.70
23223;BME280;11780;13.904;100.620;2022-10-22T17:56:01;101304.91;;;30.52;74.23
23223;BME280;11780;13.904;100.620;2022-10-22T17:58:32;101298.81;;;30.55;74.30
23223;BME280;11780;13.904;100.620;2022-10-22T18:01:04;101299.91;;;30.54;74.11
23223;BME280;11780;13.904;100.620;2022-10-22T18:03:35;101292.97;;;30.57;74.03
23223;BME280;11780;13.904;100.620;2022-10-22T18:06:06;101292.75;;;30.53;74.20
23223;BME280;11780;13.904;100.620;2022-10-22T18:08:39;101293.06;;;30.51;74.16
23223;BME280;11780;13.904;100.620;2022-10-22T18:11:11;101288.88;;;30.54;74.34
23223;BME280;11780;13.904;100.620;2022-10-22T18:13:42;101295.84;;;30.51;74.39
23223;BME280;11780;13.904;100.620;2022-10-22T18:16:13;101298.88;;;30.50;74.44
23223;BME280;11780;13.904;100.620;2022-10-22T18:18:48;101299.72;;;30.50;74.46
23223;BME280;11780;13.904;100.620;2022-10-22T18:21:21;101297.75;;;30.51;74.44
23223;BME280;11780;13.904;100.620;2022-10-22T18:23:52;101292.56;;;30.49;74.40
23223;BME280;11780;13.904;100.620;2022-10-22T18:26:23;101305.53;;;30.49;74.70
23223;BME280;11780;13.904;100.620;2022-10-22T18:28:56;101325.59;;;30.55;74.31
23223;BME280;11780;13.904;100.620;2022-10-22T18:31:27;101322.00;;;30.54;74.87
23223;BME280;11780;13.904;100.620;2022-10-22T18:33:59;101319.78;;;30.56;74.39
23223;BME280;11780;13.904;100.620;2022-10-22T18:36:30;101320.34;;;30.53;74.36
23223;BME280;11780;13.904;100.620;2022-10-22T18:39:01;101310.94;;;30.54;74.59
23223;BME280;11780;13.904;100.620;2022-10-22T18:41:33;101310.38;;;30.57;74.32
23223;BME280;11780;13.904;100.620;2022-10-22T18:44:05;101299.06;;;30.53;74.26
23223;BME280;11780;13.904;100.620;2022-10-22T18:46:36;101286.72;;;30.51;74.51
23223;BME280;11780;13.904;100.620;2022-10-22T18:49:15;101284.06;;;30.46;74.89
23223;BME280;11780;13.904;100.620;2022-10-22T18:51:47;101276.59;;;30.46;74.52
23223;BME280;11780;13.904;100.620;2022-10-22T18:54:26;101270.25;;;30.46;74.49
23223;BME280;11780;13.904;100.620;2022-10-22T18:56:57;101270.91;;;30.43;74.18
23223;BME280;11780;13.904;100.620;2022-10-22T18:59:39;101260.34;;;30.45;74.45
23223;BME280;11780;13.904;100.620;2022-10-22T19:02:10;101257.56;;;30.45;74.37
23223;BME280;11780;13.904;100.620;2022-10-22T19:04:40;101264.53;;;30.42;74.60